Nathaniel B. Palmer — WBP3210 — position and weather

sailwx.info

Track history (hours):
 
Tides and Currents Weather Stations Pressure Air Temp Water Temp Dewpoint Dewpoint Depression Visibility Wind Speed Wind Dir Waves Ship Positions

Oceanographic research ship Nathaniel B. Palmer (USA)

Contact: Ethan Norris, ethan.norris.contractor@usap.gov

Detailed information on ship capabilities available from University of Delaware's Ocean Information Center and ARCUS's ALIAS (Arctic Logistics Information and Support) project.

Owner: OFFSHORE SERVICE VESSELS, Cut Off, LA. More information available from US FCC via Universal Licensing System and Coast Guard Vessel Documentation Center.

Last reported at 2019-Dec-15 10:00 UTC. Time now 2019-Dec-15 10:42 UTC.
Position S 53°06' W 070°48'.

Type: Other ship. MMSI: 366610000.

Wind from 280 at 12 knots

Barometer 998.3 mb
Air temperature 8.8 ° C
Water temperature 8.5 ° C

Date/timePositionNaut miles runAvg speedWind from/ knotsBaromVisibWave heightAir tempDewpointWater temp
2019-Dec-15 10:00S 53°06' W 070°48'7 7.0 280 / 12998.3 8.8 8.5
2019-Dec-15 09:00S 53°00' W 070°42'9 9.4 280 / 24997.5 8.8 8.5
2019-Dec-15 08:00S 52°54' W 070°30'7 7.0 300 / 27996.8 9.1 8.5
2019-Dec-15 07:00S 52°48' W 070°24'9 9.4 300 / 20997.6 9.4 8.5
2019-Dec-15 06:00S 52°42' W 070°12'1212.5 310 / 18997.4 8.9 8.5
2019-Dec-15 05:00S 52°36' W 069°54'9 9.4 300 / 21997.3 10.1 8.5
2019-Dec-15 04:00S 52°30' W 069°42'1312.5 280 / 20997.3 10.8 8.5
2019-Dec-15 03:00S 52°24' W 069°24'9 9.5 290 / 22997.1 11.0 8.5
2019-Dec-15 02:00S 52°18' W 069°12'1111.0 290 / 20997.2 12.1 8.5
2019-Dec-15 01:00S 52°18' W 068°54'9 9.5 250 / 16996.9 11.1 8.5
2019-Dec-15 00:00S 52°24' W 068°42'7 7.3 240 / 19996.6 11.6 8.5
2019-Dec-14 23:00S 52°24' W 068°30'7 7.0 270 / 18996.1 12.5 8.5
2019-Dec-14 22:00S 52°30' W 068°24'7 7.3 360 / 17996.2 11.1 8.5
2019-Dec-14 21:00S 52°30' W 068°12'7 7.0 360 / 19996.7 9.8 8.5
2019-Dec-14 20:00S 52°36' W 068°06'7 7.0 996.6 9.3 8.5
2019-Dec-14 19:00S 52°42' W 068°00'9 9.4 010 / 24996.8 9.4 8.5
2019-Dec-14 18:00S 52°48' W 067°48'7 7.0 997.8 9.2 8.5
2019-Dec-14 17:00S 52°54' W 067°42'4 3.6 998.7 8.7 8.5
2019-Dec-14 16:00S 52°54' W 067°36'7 7.0 350 / 16999.2 8.6 8.5
2019-Dec-14 15:00S 53°00' W 067°30'9 9.4 330 / 13999.7 8.6 8.5
2019-Dec-14 14:00S 53°06' W 067°18'4 3.6 330 / 12999.8 8.4 8.5
2019-Dec-14 13:00S 53°06' W 067°12'7 7.0 330 / 111000.1 8.3 8.5
2019-Dec-14 12:00S 53°12' W 067°06'7 7.0 310 / 91000.3 8.7 8.5
2019-Dec-14 11:00S 53°18' W 067°00'9 9.3 280 / 101000.4 8.7 8.5
2019-Dec-14 10:00S 53°24' W 066°48'7 7.0 270 / 121000.2 8.3 8.5
2019-Dec-14 09:00S 53°30' W 066°42'4 3.6 270 / 13999.8 8.0 8.5
2019-Dec-14 08:00S 53°30' W 066°36'7 7.0 270 / 11999.4 7.8 8.5
2019-Dec-14 07:00S 53°36' W 066°30'9 9.3 330 / 9999.4 7.7 8.5
2019-Dec-14 06:00S 53°42' W 066°18'7 7.0 330 / 12999.4 7.7 8.5
2019-Dec-14 05:00S 53°48' W 066°12'4 3.5 340 / 13999.5 7.7 8.5
2019-Dec-14 04:00S 53°48' W 066°06'9 9.3 350 / 12999.5 7.6 8.5
2019-Dec-14 03:00S 53°54' W 065°54'7 7.0 360 / 11999.4 7.3 8.5
2019-Dec-14 02:00S 54°00' W 065°48'7 7.0 040 / 19999.4 6.3 8.5
2019-Dec-14 01:00S 54°06' W 065°42'7 7.0 040 / 18999.4 5.8 8.5
2019-Dec-14 00:00S 54°06' W 065°30'7 7.0 040 / 17999.6 5.5 8.5
2019-Dec-13 23:00S 54°12' W 065°24'7 6.9 030 / 151000.0 5.0 8.5
2019-Dec-13 22:00S 54°18' W 065°18'7 6.9 030 / 131000.2 4.8 8.5
2019-Dec-13 21:00S 54°24' W 065°12'7 7.0 020 / 111000.4 4.8 8.5
2019-Dec-13 20:00S 54°24' W 065°00'1212.5 020 / 101000.5 5.2 8.5
2019-Dec-13 19:00S 54°36' W 064°54'6 6.0 020 / 111000.5 5.5 8.5
2019-Dec-13 18:00S 54°42' W 064°54'1212.0 020 / 111000.7 5.2 8.5
2019-Dec-13 17:00S 54°54' W 064°54'6 6.0 010 / 111000.7 5.1 8.5
2019-Dec-13 16:00S 55°00' W 064°54'1212.5 040 / 101000.7 4.8 7.9
2019-Dec-13 15:00S 55°12' W 064°48'6 6.0 060 / 91000.9 4.5 7.7
2019-Dec-13 14:00S 55°18' W 064°48'1212.5 070 / 91001.1 4.1 6.3
2019-Dec-13 13:00S 55°30' W 064°42'1212.0 080 / 91001.5 3.7 5.0
2019-Dec-13 12:00S 55°42' W 064°42'1212.5 090 / 101001.7 3.3 5.0
2019-Dec-13 11:00S 55°54' W 064°36'6 6.0 100 / 101001.9 3.2 5.0
2019-Dec-13 10:00S 56°00' W 064°36'1212.5 120 / 81002.1 2.6 5.0
2019-Dec-13 09:00S 56°12' W 064°30'1212.0 170 / 61002.3 1.2 5.0
2019-Dec-13 08:00S 56°24' W 064°30'1212.4 200 / 41002.3 1.2 5.0
2019-Dec-13 07:00S 56°36' W 064°24'6 6.0 110 / 81002.3 2.2 5.0
2019-Dec-13 06:00S 56°42' W 064°24'1212.4 110 / 141002.4 3.1 5.0
2019-Dec-13 05:00S 56°54' W 064°18'1212.0 110 / 131002.8 3.0 5.0
2019-Dec-13 04:00S 57°06' W 064°18'7 6.8 110 / 131003.1 2.9 5.0
2019-Dec-13 03:00S 57°12' W 064°12'1212.0 110 / 141003.0 2.8 5.0
2019-Dec-13 02:00S 57°24' W 064°12'7 6.8 110 / 141003.1 2.4 5.0
2019-Dec-13 01:00S 57°30' W 064°06'1212.4 120 / 161002.8 2.1 5.0
2019-Dec-13 00:00S 57°42' W 064°00'1212.0 120 / 151002.7 2.0 5.0
2019-Dec-12 23:00S 57°54' W 064°00'7 6.8 120 / 151002.6 2.0 5.0
2019-Dec-12 22:00S 58°00' W 063°54'1212.0 110 / 151002.3 1.7 5.0
2019-Dec-12 21:00S 58°12' W 063°54'1212.4 110 / 161002.1 1.5 4.9
2019-Dec-12 20:00S 58°24' W 063°48'6 6.0 110 / 181001.8 1.1 4.6
2019-Dec-12 19:00S 58°30' W 063°48'1212.0 110 / 181001.6 1.2 4.4
2019-Dec-12 18:00S 58°42' W 063°48'1212.4 100 / 181001.2 1.4 4.7
2019-Dec-12 17:00S 58°54' W 063°42'6 6.0 090 / 181001.1 1.0 4.9
2019-Dec-12 16:00S 59°00' W 063°42'1212.4 100 / 191001.0 0.8 4.7
2019-Dec-12 15:00S 59°12' W 063°36'1212.0 100 / 201000.8 0.6 4.1
2019-Dec-12 14:00S 59°24' W 063°36'7 6.7 100 / 201000.7 0.2 3.4
2019-Dec-12 13:00S 59°30' W 063°30'1212.0 090 / 201000.7 -0.0 2.6
2019-Dec-12 12:00S 59°42' W 063°30'1212.4 090 / 201000.8 -0.0 2.1
2019-Dec-12 11:00S 59°54' W 063°24'7 6.7 090 / 201000.8 -0.1 2.0
2019-Dec-12 10:00S 60°00' W 063°18'1212.0 090 / 201000.9 -0.4 1.9
2019-Dec-12 09:00S 60°12' W 063°18'1212.4 090 / 201001.1 -0.6 1.4
2019-Dec-12 08:00S 60°24' W 063°12'7 6.7 090 / 201001.1 -0.9 1.4
2019-Dec-12 07:00S 60°30' W 063°06'1212.0 090 / 201001.3 -1.2 1.1
2019-Dec-12 06:00S 60°42' W 063°06'7 6.7 090 / 191001.5 -1.5 0.9
2019-Dec-12 05:00S 60°48' W 063°00'1212.0 080 / 201001.8 -1.6 0.8
2019-Dec-12 04:00S 61°00' W 063°00'1212.3 090 / 181002.1 -1.6 0.6
2019-Dec-12 03:00S 61°12' W 062°54'6 6.0 090 / 151002.5 -1.7 0.6
2019-Dec-12 02:00S 61°18' W 062°54'1212.3 080 / 141002.6 -1.4 0.6
2019-Dec-12 01:00S 61°30' W 062°48'7 6.6 090 / 131002.8 -1.2 0.6
2019-Dec-12 00:00S 61°36' W 062°42'1212.0 090 / 121003.0 -1.1 0.4
2019-Dec-11 23:00S 61°48' W 062°42'1212.3 090 / 91003.2 -1.2 0.4
2019-Dec-11 22:00S 62°00' W 062°36'7 6.6 080 / 51003.3 -1.2 0.3
2019-Dec-11 21:00S 62°06' W 062°30'1212.0 090 / 31003.4 -1.2 0.4
2019-Dec-11 20:00S 62°18' W 062°30'1212.3 330 / 21003.4 -0.9 0.5
2019-Dec-11 19:00S 62°30' W 062°24'8 8.2 280 / 21003.3 -0.9 0.3
2019-Dec-11 18:00S 62°36' W 062°12'7 6.6 270 / 31003.2 -1.5 0.3
2019-Dec-11 17:00S 62°42' W 062°06'1313.2 310 / 61003.0 -1.4 0.4
2019-Dec-11 16:00S 62°54' W 061°54'7 6.6 320 / 91002.8 -1.2 0.5
2019-Dec-11 15:00S 63°00' W 061°48'7 6.6 320 / 101002.7 -1.2 0.5
2019-Dec-11 14:00S 63°06' W 061°42'1212.3 310 / 111002.5 -0.9 0.9
2019-Dec-11 13:00S 63°18' W 061°36'7 6.6 270 / 121002.3 -0.1 0.8
2019-Dec-11 12:00S 63°24' W 061°30'7 6.6 270 / 141002.2 0.3 1.2
2019-Dec-11 11:00S 63°30' W 061°24'1212.0 270 / 121002.1 0.7 1.1
2019-Dec-11 10:00S 63°42' W 061°24'7 6.6 270 / 81001.9 0.4 1.0
2019-Dec-11 09:00S 63°48' W 061°30'8 8.0 280 / 101001.7 0.2 1.5
2019-Dec-11 08:00S 63°54' W 061°42'1212.3 300 / 111001.4 0.4 1.8
2019-Dec-11 07:00S 64°06' W 061°48'7 6.5 300 / 101001.3 0.2 2.0
2019-Dec-11 06:00S 64°12' W 061°54'1212.3 330 / 81001.3 0.2 1.9
2019-Dec-11 05:00S 64°24' W 062°00'8 7.8 020 / 51001.3 0.7 1.7
2019-Dec-11 04:00S 64°24' W 062°18'10 9.8 010 / 41001.2 0.5 1.4
2019-Dec-11 03:00S 64°30' W 062°36'8 7.9 340 / 81001.0 0.5 1.2
2019-Dec-11 02:00S 64°36' W 062°48'10 9.8 290 / 31000.8 1.1 1.2
2019-Dec-11 01:00S 64°42' W 063°06'8 7.7 310 / 11000.8 1.0 0.8
2019-Dec-11 00:00S 64°42' W 063°24'8 7.9 250 / 21000.8 1.6 0.3
2019-Dec-10 23:00S 64°48' W 063°36'8 7.7 270 / 41000.7 1.4 -0.9
2019-Dec-10 22:00S 64°48' W 063°54'5 5.1 280 / 41000.8 1.3 -1.6
2019-Dec-10 21:00S 64°48' W 064°06'7 6.5 280 / 31000.5 2.1 -1.6
2019-Dec-10 20:00S 64°42' W 064°12'3 2.6 090 / 11000.3 1.7 -1.5
2019-Dec-10 19:00S 64°42' W 064°18'0 0.0 140 / 31000.2 1.3 -1.0
2019-Dec-10 18:00S 64°42' W 064°18'0 0.0 170 / 41000.0 -0.0 -1.0
2019-Dec-10 17:00S 64°42' W 064°18'0 0.0 180 / 4999.8 -0.2 -1.1
2019-Dec-10 16:00S 64°42' W 064°18'0 0.0 190 / 3999.8 -0.3 -1.2
2019-Dec-10 15:00S 64°42' W 064°18'0 0.0 160 / 1999.6 0.1 -0.9
2019-Dec-10 14:00S 64°42' W 064°18'0 0.0 160 / 1999.5 -0.0 -1.0
2019-Dec-10 13:00S 64°42' W 064°18'0 0.0 160 / 3999.5 -1.1 -0.9
2019-Dec-10 12:00S 64°42' W 064°18'0 0.0 180 / 4999.4 -1.2 -1.2
2019-Dec-10 11:00S 64°42' W 064°18'0 0.0 170 / 3999.2 -0.6 -1.2
2019-Dec-10 10:00S 64°42' W 064°18'0 0.0 160 / 3999.2 -0.8 -1.1
2019-Dec-10 09:00S 64°42' W 064°18'3 2.6 140 / 3999.1 -1.1 -1.3
2019-Dec-10 08:00S 64°42' W 064°12'3 2.6 150 / 4999.2 -1.3 -1.5
2019-Dec-10 07:00S 64°42' W 064°06'6 6.0 190 / 4999.2 -0.0 -1.5
2019-Dec-10 06:00S 64°48' W 064°06'0 0.0 230 / 4999.2 -1.0 -1.7
2019-Dec-10 05:00S 64°48' W 064°06'0 0.0 280 / 6999.2 -1.2 -1.7
2019-Dec-10 04:00S 64°48' W 064°06'0 0.0 290 / 6999.1 -1.1 -1.7
2019-Dec-10 03:00S 64°48' W 064°06'3 2.6 310 / 6999.0 -1.0 -1.5
2019-Dec-10 02:00S 64°48' W 064°00'6 6.0 300 / 7998.7 -0.8 -0.7
2019-Dec-10 01:00S 64°54' W 064°00'0 0.0 260 / 2998.4 0.1 -0.3
2019-Dec-10 00:00S 64°54' W 064°00'7 6.5 270 / 4998.2 0.2 -0.4
2019-Dec-09 23:00S 64°48' W 063°54'10 9.7 260 / 6998.0 -0.0 -0.3
2019-Dec-09 22:00S 64°54' W 063°36'8 7.6 270 / 5997.9 1.1 0.5
2019-Dec-09 21:00S 64°54' W 063°18'10 9.7 030 / 7997.8 1.9 0.7
2019-Dec-09 20:00S 64°48' W 063°00'3 2.6 030 / 7997.9 1.8 1.4
2019-Dec-09 19:00S 64°48' W 062°54'5 5.1 060 / 4997.8 3.6 1.4
2019-Dec-09 18:00S 64°48' W 063°06'8 7.9 020 / 9997.8 2.3 1.1
2019-Dec-09 17:00S 64°54' W 063°18'8 7.6 010 / 11997.8 2.4 0.7
2019-Dec-09 16:00S 64°54' W 063°36'10 9.7 050 / 13997.5 2.4 0.1
2019-Dec-09 15:00S 64°48' W 063°54'10 9.7 070 / 11997.2 1.7 -1.0
2019-Dec-09 14:00S 64°42' W 064°12'3 2.6 110 / 4997.1 0.4 -1.6
2019-Dec-09 13:00S 64°42' W 064°18'0 0.0 110 / 5997.2 -1.1 -0.8
2019-Dec-09 12:00S 64°42' W 064°18'0 0.0 110 / 7997.3 -1.2 -1.0
2019-Dec-09 11:00S 64°42' W 064°18'0 0.0 110 / 7997.6 -1.6 -0.7
2019-Dec-09 10:00S 64°42' W 064°18'3 2.6 110 / 7998.0 -1.5 -0.5
2019-Dec-09 09:00S 64°42' W 064°24'3 2.6 110 / 6998.2 -0.8 -0.2
2019-Dec-09 08:00S 64°42' W 064°30'0 0.0 100 / 4998.4 -0.2 0.6
2019-Dec-09 07:00S 64°42' W 064°30'3 2.6 060 / 5998.5 -0.5 0.5
2019-Dec-09 06:00S 64°42' W 064°36'0 0.0 030 / 6998.7 -0.3 0.3
2019-Dec-09 05:00S 64°42' W 064°36'7 6.5 040 / 6998.9 -0.2 0.4
2019-Dec-09 04:00S 64°48' W 064°42'3 2.6 020 / 5999.0 -0.1 0.7
2019-Dec-09 03:00S 64°48' W 064°36'7 6.5 030 / 4999.1 -0.0 0.5
2019-Dec-09 02:00S 64°42' W 064°30'3 2.6 010 / 5999.1 0.1 0.4
2019-Dec-09 01:00S 64°42' W 064°24'3 2.6 060 / 2999.2 0.2 0.4
2019-Dec-09 00:00S 64°42' W 064°18'0 0.0 090 / 4999.4 -0.2 -0.2
2019-Dec-08 23:00S 64°42' W 064°18'0 0.0 040 / 3999.5 0.1 -0.3
2019-Dec-08 22:00S 64°42' W 064°18'0 0.0 350 / 4999.7 0.4 -0.5
2019-Dec-08 21:00S 64°42' W 064°18'0 0.0 330 / 6999.6 0.5 -0.5
2019-Dec-08 20:00S 64°42' W 064°18'5 5.1 350 / 6999.6 1.0 -0.2
2019-Dec-08 19:00S 64°42' W 064°30'7 6.5 350 / 8999.5 0.8 0.4
2019-Dec-08 18:00S 64°48' W 064°24'5 5.1 320 / 4999.5 1.5 -1.5
2019-Dec-08 17:00S 64°48' W 064°12'6 6.0 320 / 4999.5 1.5 -1.7
2019-Dec-08 16:00S 64°54' W 064°12'0 0.0 250 / 3999.4 2.2 -1.7
2019-Dec-08 15:00S 64°54' W 064°12'0 0.0 080 / 6999.2 3.1 -1.7
2019-Dec-08 14:00S 64°54' W 064°12'0 0.0 090 / 8999.2 2.2 -1.7
2019-Dec-08 13:00S 64°54' W 064°12'0 0.0 060 / 11999.2 1.6 -1.7
2019-Dec-08 12:00S 64°54' W 064°12'3 2.5 050 / 8999.2 1.1 -1.7
2019-Dec-08 11:00S 64°54' W 064°18'0 0.0 070 / 6999.2 1.0 -1.7
2019-Dec-08 10:00S 64°54' W 064°18'0 0.0 080 / 17998.8 0.6 -1.7
2019-Dec-08 09:00S 64°54' W 064°18'0 0.0 070 / 15998.5 0.2 -1.7
2019-Dec-08 08:00S 64°54' W 064°18'3 2.5 090 / 13998.4 -0.0 -1.7
2019-Dec-08 07:00S 64°54' W 064°24'3 2.5 080 / 13998.2 -0.0 -1.7
2019-Dec-08 06:00S 64°54' W 064°18'0 0.0 110 / 5998.0 -0.8 -1.7
2019-Dec-08 05:00S 64°54' W 064°18'3 2.5 100 / 7997.7 -0.4 -1.6
2019-Dec-08 04:00S 64°54' W 064°24'8 7.6 070 / 9997.5 0.2 -1.6
2019-Dec-08 03:00S 64°54' W 064°42'8 7.6 150 / 7997.4 1.6 0.7
2019-Dec-08 02:00S 64°54' W 065°00'1010.2 130 / 7997.3 2.2 0.3
2019-Dec-08 01:00S 64°54' W 065°24'10 9.7 060 / 7997.0 1.6 -0.0
2019-Dec-08 00:00S 65°00' W 065°42'10 9.7 110 / 10996.5 1.6 0.6
2019-Dec-07 23:00S 65°06' W 066°00'1211.7 140 / 5996.6 1.4 1.1
2019-Dec-07 22:00S 65°12' W 066°24'10 9.6 170 / 6996.5 1.1 0.7
2019-Dec-07 21:00S 65°18' W 066°42'10 9.6 200 / 4996.3 1.5 0.8
2019-Dec-07 20:00S 65°24' W 067°00'10 9.6 190 / 3996.0 1.2 0.4
2019-Dec-07 19:00S 65°30' W 067°18'1313.0 160 / 3995.7 0.7 0.1
2019-Dec-07 18:00S 65°42' W 067°30'8 7.8 150 / 5995.6 0.2 -0.1
2019-Dec-07 17:00S 65°48' W 067°42'0 0.0 150 / 9995.5 0.8 -1.3
2019-Dec-07 16:00S 65°48' W 067°42'0 0.0 160 / 10995.4 0.9 -1.4
2019-Dec-07 15:00S 65°48' W 067°42'0 0.0 160 / 10995.2 0.3 -1.4
2019-Dec-07 14:00S 65°48' W 067°42'0 0.0 160 / 9995.3 0.3 -1.5
2019-Dec-07 13:00S 65°48' W 067°42'0 0.0 150 / 6995.5 -0.5 -1.4
2019-Dec-07 12:00S 65°48' W 067°42'0 0.0 140 / 11995.7 -0.7 -1.5
2019-Dec-07 11:00S 65°48' W 067°42'0 0.0 150 / 9995.7 -1.2 -1.5
2019-Dec-07 10:00S 65°48' W 067°42'0 0.0 160 / 5995.8 -1.2 -1.5
2019-Dec-07 09:00S 65°48' W 067°42'0 0.0 140 / 8996.0 -1.7 -1.6
2019-Dec-07 08:00S 65°48' W 067°42'0 0.0 140 / 6996.3 -2.0 -1.5
2019-Dec-07 07:00S 65°48' W 067°42'0 0.0 120 / 11996.3 -2.0 -1.5
2019-Dec-07 06:00S 65°48' W 067°42'2 2.5 140 / 11996.1 -2.3 -1.5
2019-Dec-07 05:00S 65°48' W 067°48'2 2.5 130 / 12996.1 -1.7 -1.4
2019-Dec-07 04:00S 65°48' W 067°54'0 0.0 140 / 12996.2 -1.4 -0.9
2019-Dec-07 03:00S 65°48' W 067°54'2 2.5 130 / 15996.3 -0.5 -0.7
2019-Dec-07 02:00S 65°48' W 068°00'2 2.5 130 / 15996.3 -0.3 -0.6
2019-Dec-07 01:00S 65°48' W 068°06'6 6.5 130 / 15996.4 -0.0 -0.6
2019-Dec-07 00:00S 65°42' W 068°12'0 0.0 130 / 12996.5 0.1 -0.6
2019-Dec-06 23:00S 65°42' W 068°12'2 2.5 130 / 11996.7 0.4 -0.5
2019-Dec-06 22:00S 65°42' W 068°18'2 2.5 110 / 9997.1 0.6 -0.5
2019-Dec-06 21:00S 65°42' W 068°24'2 2.5 080 / 10997.3 0.6 -0.6
2019-Dec-06 20:00S 65°42' W 068°18'2 2.5 100 / 9997.7 -0.5 -0.7
2019-Dec-06 19:00S 65°42' W 068°12'6 6.5 100 / 9998.1 -0.6 -0.6
2019-Dec-06 18:00S 65°48' W 068°06'2 2.5 100 / 10998.2 -0.3 -0.8
2019-Dec-06 17:00S 65°48' W 068°12'2 2.5 100 / 11998.5 -0.4 -0.6
2019-Dec-06 16:00S 65°48' W 068°18'6 6.0 110 / 12998.7 -0.5 -0.6
2019-Dec-06 15:00S 65°54' W 068°18'2 2.4 120 / 11999.1 -0.4 -0.6
2019-Dec-06 14:00S 65°54' W 068°12'2 2.4 130 / 11999.6 -0.9 -0.8
2019-Dec-06 13:00S 65°54' W 068°18'6 6.0 150 / 91000.1 -1.0 -0.7
2019-Dec-06 12:00S 66°00' W 068°18'0 0.0 160 / 91000.6 1.2 -0.8
2019-Dec-06 11:00S 66°00' W 068°18'0 0.0 140 / 91001.1 -1.0 -1.0
2019-Dec-06 10:00S 66°00' W 068°18'0 0.0 130 / 91001.5 -1.4 -0.8
2019-Dec-06 09:00S 66°00' W 068°18'6 6.5 140 / 91001.7 0.1 -1.2
2019-Dec-06 08:00S 66°06' W 068°24'0 0.0 150 / 81001.8 -1.7 -1.2
2019-Dec-06 07:00S 66°06' W 068°24'2 2.4 160 / 71001.9 -2.0 -1.4
2019-Dec-06 06:00S 66°06' W 068°30'6 6.0 170 / 71001.7 -1.7 -1.6
2019-Dec-06 05:00S 66°12' W 068°30'2 2.4 190 / 51001.6 -2.2 -1.6
2019-Dec-06 04:00S 66°12' W 068°24'6 6.5 190 / 61001.6 -2.2 -1.7
2019-Dec-06 03:00S 66°18' W 068°18'8 7.7 220 / 81001.4 -2.5 -1.7
2019-Dec-06 02:00S 66°24' W 068°06'5 4.8 210 / 101001.3 -2.4 -1.8
2019-Dec-06 01:00S 66°24' W 067°54'5 4.8 210 / 111001.1 -2.0 -1.8
2019-Dec-06 00:00S 66°24' W 067°42'8 7.7 220 / 101000.9 -0.5 -1.7
2019-Dec-05 23:00S 66°30' W 067°30'0 0.0 210 / 91000.8 0.2 -1.6
2019-Dec-05 22:00S 66°30' W 067°30'0 0.0 220 / 91000.6 0.4 -1.6
2019-Dec-05 21:00S 66°30' W 067°30'0 0.0 220 / 71000.4 0.4 -1.5
2019-Dec-05 20:00S 66°30' W 067°30'0 0.0 210 / 81000.0 0.6 -1.5
2019-Dec-05 19:00S 66°30' W 067°30'0 0.0 210 / 6999.7 0.5 -1.6
2019-Dec-05 18:00S 66°30' W 067°30'0 0.0 220 / 4999.1 0.4 -1.6
2019-Dec-05 17:00S 66°30' W 067°30'0 0.0 240 / 5998.7 -0.1 -1.6
2019-Dec-05 16:00S 66°30' W 067°30'0 0.0 240 / 8998.1 -0.3 -1.6
2019-Dec-05 15:00S 66°30' W 067°30'0 0.0 240 / 10997.6 -0.4 -1.5
2019-Dec-05 14:00S 66°30' W 067°30'5 4.8 210 / 8997.3 0.2 -1.7
2019-Dec-05 13:00S 66°30' W 067°42'7 7.2 190 / 9996.7 -0.8 -1.7
2019-Dec-05 12:00S 66°30' W 068°00'8 7.7 170 / 7996.3 -1.2 -1.7
2019-Dec-05 11:00S 66°36' W 068°12'5 4.8 190 / 7995.7 -1.4 -1.7
2019-Dec-05 10:00S 66°36' W 068°24'   240 / 3995.2 -1.5 -1.7
Track history (hours):
 
Tides and Currents Weather Stations Pressure Air Temp Water Temp Dewpoint Dewpoint Depression Visibility Wind Speed Wind Dir Waves Ship Positions

Oceanographic research ship Nathaniel B. Palmer (USA)

Contact: Ethan Norris, ethan.norris.contractor@usap.gov

Detailed information on ship capabilities available from University of Delaware's Ocean Information Center and ARCUS's ALIAS (Arctic Logistics Information and Support) project.

Owner: OFFSHORE SERVICE VESSELS, Cut Off, LA. More information available from US FCC via Universal Licensing System and Coast Guard Vessel Documentation Center.

Last reported at 2019-Dec-15 10:00 UTC. Time now 2019-Dec-15 10:42 UTC.
Position S 53°06' W 070°48'.

Type: Other ship. MMSI: 366610000.

Wind from 280 at 12 knots

Barometer 998.3 mb
Air temperature 8.8 ° C
Water temperature 8.5 ° C

Date/timePositionNaut miles runAvg speedWind from/ knotsBaromVisibWave heightAir tempDewpointWater temp
2019-Dec-15 10:00S 53°06' W 070°48'7 7.0 280 / 12998.3 8.8 8.5
2019-Dec-15 09:00S 53°00' W 070°42'9 9.4 280 / 24997.5 8.8 8.5
2019-Dec-15 08:00S 52°54' W 070°30'7 7.0 300 / 27996.8 9.1 8.5
2019-Dec-15 07:00S 52°48' W 070°24'9 9.4 300 / 20997.6 9.4 8.5
2019-Dec-15 06:00S 52°42' W 070°12'1212.5 310 / 18997.4 8.9 8.5
2019-Dec-15 05:00S 52°36' W 069°54'9 9.4 300 / 21997.3 10.1 8.5
2019-Dec-15 04:00S 52°30' W 069°42'1312.5 280 / 20997.3 10.8 8.5
2019-Dec-15 03:00S 52°24' W 069°24'9 9.5 290 / 22997.1 11.0 8.5
2019-Dec-15 02:00S 52°18' W 069°12'1111.0 290 / 20997.2 12.1 8.5
2019-Dec-15 01:00S 52°18' W 068°54'9 9.5 250 / 16996.9 11.1 8.5
2019-Dec-15 00:00S 52°24' W 068°42'7 7.3 240 / 19996.6 11.6 8.5
2019-Dec-14 23:00S 52°24' W 068°30'7 7.0 270 / 18996.1 12.5 8.5
2019-Dec-14 22:00S 52°30' W 068°24'7 7.3 360 / 17996.2 11.1 8.5
2019-Dec-14 21:00S 52°30' W 068°12'7 7.0 360 / 19996.7 9.8 8.5
2019-Dec-14 20:00S 52°36' W 068°06'7 7.0 996.6 9.3 8.5
2019-Dec-14 19:00S 52°42' W 068°00'9 9.4 010 / 24996.8 9.4 8.5
2019-Dec-14 18:00S 52°48' W 067°48'7 7.0 997.8 9.2 8.5
2019-Dec-14 17:00S 52°54' W 067°42'4 3.6 998.7 8.7 8.5
2019-Dec-14 16:00S 52°54' W 067°36'7 7.0 350 / 16999.2 8.6 8.5
2019-Dec-14 15:00S 53°00' W 067°30'9 9.4 330 / 13999.7 8.6 8.5
2019-Dec-14 14:00S 53°06' W 067°18'4 3.6 330 / 12999.8 8.4 8.5
2019-Dec-14 13:00S 53°06' W 067°12'7 7.0 330 / 111000.1 8.3 8.5
2019-Dec-14 12:00S 53°12' W 067°06'7 7.0 310 / 91000.3 8.7 8.5
2019-Dec-14 11:00S 53°18' W 067°00'9 9.3 280 / 101000.4 8.7 8.5
2019-Dec-14 10:00S 53°24' W 066°48'7 7.0 270 / 121000.2 8.3 8.5
2019-Dec-14 09:00S 53°30' W 066°42'4 3.6 270 / 13999.8 8.0 8.5
2019-Dec-14 08:00S 53°30' W 066°36'7 7.0 270 / 11999.4 7.8 8.5
2019-Dec-14 07:00S 53°36' W 066°30'9 9.3 330 / 9999.4 7.7 8.5
2019-Dec-14 06:00S 53°42' W 066°18'7 7.0 330 / 12999.4 7.7 8.5
2019-Dec-14 05:00S 53°48' W 066°12'4 3.5 340 / 13999.5 7.7 8.5
2019-Dec-14 04:00S 53°48' W 066°06'9 9.3 350 / 12999.5 7.6 8.5
2019-Dec-14 03:00S 53°54' W 065°54'7 7.0 360 / 11999.4 7.3 8.5
2019-Dec-14 02:00S 54°00' W 065°48'7 7.0 040 / 19999.4 6.3 8.5
2019-Dec-14 01:00S 54°06' W 065°42'7 7.0 040 / 18999.4 5.8 8.5
2019-Dec-14 00:00S 54°06' W 065°30'7 7.0 040 / 17999.6 5.5 8.5
2019-Dec-13 23:00S 54°12' W 065°24'7 6.9 030 / 151000.0 5.0 8.5
2019-Dec-13 22:00S 54°18' W 065°18'7 6.9 030 / 131000.2 4.8 8.5
2019-Dec-13 21:00S 54°24' W 065°12'7 7.0 020 / 111000.4 4.8 8.5
2019-Dec-13 20:00S 54°24' W 065°00'1212.5 020 / 101000.5 5.2 8.5
2019-Dec-13 19:00S 54°36' W 064°54'6 6.0 020 / 111000.5 5.5 8.5
2019-Dec-13 18:00S 54°42' W 064°54'1212.0 020 / 111000.7 5.2 8.5
2019-Dec-13 17:00S 54°54' W 064°54'6 6.0 010 / 111000.7 5.1 8.5
2019-Dec-13 16:00S 55°00' W 064°54'1212.5 040 / 101000.7 4.8 7.9
2019-Dec-13 15:00S 55°12' W 064°48'6 6.0 060 / 91000.9 4.5 7.7
2019-Dec-13 14:00S 55°18' W 064°48'1212.5 070 / 91001.1 4.1 6.3
2019-Dec-13 13:00S 55°30' W 064°42'1212.0 080 / 91001.5 3.7 5.0
2019-Dec-13 12:00S 55°42' W 064°42'1212.5 090 / 101001.7 3.3 5.0
2019-Dec-13 11:00S 55°54' W 064°36'6 6.0 100 / 101001.9 3.2 5.0
2019-Dec-13 10:00S 56°00' W 064°36'1212.5 120 / 81002.1 2.6 5.0
2019-Dec-13 09:00S 56°12' W 064°30'1212.0 170 / 61002.3 1.2 5.0
2019-Dec-13 08:00S 56°24' W 064°30'1212.4 200 / 41002.3 1.2 5.0
2019-Dec-13 07:00S 56°36' W 064°24'6 6.0 110 / 81002.3 2.2 5.0
2019-Dec-13 06:00S 56°42' W 064°24'1212.4 110 / 141002.4 3.1 5.0
2019-Dec-13 05:00S 56°54' W 064°18'1212.0 110 / 131002.8 3.0 5.0
2019-Dec-13 04:00S 57°06' W 064°18'7 6.8 110 / 131003.1 2.9 5.0
2019-Dec-13 03:00S 57°12' W 064°12'1212.0 110 / 141003.0 2.8 5.0
2019-Dec-13 02:00S 57°24' W 064°12'7 6.8 110 / 141003.1 2.4 5.0
2019-Dec-13 01:00S 57°30' W 064°06'1212.4 120 / 161002.8 2.1 5.0
2019-Dec-13 00:00S 57°42' W 064°00'1212.0 120 / 151002.7 2.0 5.0
2019-Dec-12 23:00S 57°54' W 064°00'7 6.8 120 / 151002.6 2.0 5.0
2019-Dec-12 22:00S 58°00' W 063°54'1212.0 110 / 151002.3 1.7 5.0
2019-Dec-12 21:00S 58°12' W 063°54'1212.4 110 / 161002.1 1.5 4.9
2019-Dec-12 20:00S 58°24' W 063°48'6 6.0 110 / 181001.8 1.1 4.6
2019-Dec-12 19:00S 58°30' W 063°48'1212.0 110 / 181001.6 1.2 4.4
2019-Dec-12 18:00S 58°42' W 063°48'1212.4 100 / 181001.2 1.4 4.7
2019-Dec-12 17:00S 58°54' W 063°42'6 6.0 090 / 181001.1 1.0 4.9
2019-Dec-12 16:00S 59°00' W 063°42'1212.4 100 / 191001.0 0.8 4.7
2019-Dec-12 15:00S 59°12' W 063°36'1212.0 100 / 201000.8 0.6 4.1
2019-Dec-12 14:00S 59°24' W 063°36'7 6.7 100 / 201000.7 0.2 3.4
2019-Dec-12 13:00S 59°30' W 063°30'1212.0 090 / 201000.7 -0.0 2.6
2019-Dec-12 12:00S 59°42' W 063°30'1212.4 090 / 201000.8 -0.0 2.1
2019-Dec-12 11:00S 59°54' W 063°24'7 6.7 090 / 201000.8 -0.1 2.0
2019-Dec-12 10:00S 60°00' W 063°18'1212.0 090 / 201000.9 -0.4 1.9
2019-Dec-12 09:00S 60°12' W 063°18'1212.4 090 / 201001.1 -0.6 1.4
2019-Dec-12 08:00S 60°24' W 063°12'7 6.7 090 / 201001.1 -0.9 1.4
2019-Dec-12 07:00S 60°30' W 063°06'1212.0 090 / 201001.3 -1.2 1.1
2019-Dec-12 06:00S 60°42' W 063°06'7 6.7 090 / 191001.5 -1.5 0.9
2019-Dec-12 05:00S 60°48' W 063°00'1212.0 080 / 201001.8 -1.6 0.8
2019-Dec-12 04:00S 61°00' W 063°00'1212.3 090 / 181002.1 -1.6 0.6
2019-Dec-12 03:00S 61°12' W 062°54'6 6.0 090 / 151002.5 -1.7 0.6
2019-Dec-12 02:00S 61°18' W 062°54'1212.3 080 / 141002.6 -1.4 0.6
2019-Dec-12 01:00S 61°30' W 062°48'7 6.6 090 / 131002.8 -1.2 0.6
2019-Dec-12 00:00S 61°36' W 062°42'1212.0 090 / 121003.0 -1.1 0.4
2019-Dec-11 23:00S 61°48' W 062°42'1212.3 090 / 91003.2 -1.2 0.4
2019-Dec-11 22:00S 62°00' W 062°36'7 6.6 080 / 51003.3 -1.2 0.3
2019-Dec-11 21:00S 62°06' W 062°30'1212.0 090 / 31003.4 -1.2 0.4
2019-Dec-11 20:00S 62°18' W 062°30'1212.3 330 / 21003.4 -0.9 0.5
2019-Dec-11 19:00S 62°30' W 062°24'8 8.2 280 / 21003.3 -0.9 0.3
2019-Dec-11 18:00S 62°36' W 062°12'7 6.6 270 / 31003.2 -1.5 0.3
2019-Dec-11 17:00S 62°42' W 062°06'1313.2 310 / 61003.0 -1.4 0.4
2019-Dec-11 16:00S 62°54' W 061°54'7 6.6 320 / 91002.8 -1.2 0.5
2019-Dec-11 15:00S 63°00' W 061°48'7 6.6 320 / 101002.7 -1.2 0.5
2019-Dec-11 14:00S 63°06' W 061°42'1212.3 310 / 111002.5 -0.9 0.9
2019-Dec-11 13:00S 63°18' W 061°36'7 6.6 270 / 121002.3 -0.1 0.8
2019-Dec-11 12:00S 63°24' W 061°30'7 6.6 270 / 141002.2 0.3 1.2
2019-Dec-11 11:00S 63°30' W 061°24'1212.0 270 / 121002.1 0.7 1.1
2019-Dec-11 10:00S 63°42' W 061°24'7 6.6 270 / 81001.9 0.4 1.0
2019-Dec-11 09:00S 63°48' W 061°30'8 8.0 280 / 101001.7 0.2 1.5
2019-Dec-11 08:00S 63°54' W 061°42'1212.3 300 / 111001.4 0.4 1.8
2019-Dec-11 07:00S 64°06' W 061°48'7 6.5 300 / 101001.3 0.2 2.0
2019-Dec-11 06:00S 64°12' W 061°54'1212.3 330 / 81001.3 0.2 1.9
2019-Dec-11 05:00S 64°24' W 062°00'8 7.8 020 / 51001.3 0.7 1.7
2019-Dec-11 04:00S 64°24' W 062°18'10 9.8 010 / 41001.2 0.5 1.4
2019-Dec-11 03:00S 64°30' W 062°36'8 7.9 340 / 81001.0 0.5 1.2
2019-Dec-11 02:00S 64°36' W 062°48'10 9.8 290 / 31000.8 1.1 1.2
2019-Dec-11 01:00S 64°42' W 063°06'8 7.7 310 / 11000.8 1.0 0.8
2019-Dec-11 00:00S 64°42' W 063°24'8 7.9 250 / 21000.8 1.6 0.3
2019-Dec-10 23:00S 64°48' W 063°36'8 7.7 270 / 41000.7 1.4 -0.9
2019-Dec-10 22:00S 64°48' W 063°54'5 5.1 280 / 41000.8 1.3 -1.6
2019-Dec-10 21:00S 64°48' W 064°06'7 6.5 280 / 31000.5 2.1 -1.6
2019-Dec-10 20:00S 64°42' W 064°12'3 2.6 090 / 11000.3 1.7 -1.5
2019-Dec-10 19:00S 64°42' W 064°18'0 0.0 140 / 31000.2 1.3 -1.0
2019-Dec-10 18:00S 64°42' W 064°18'0 0.0 170 / 41000.0 -0.0 -1.0
2019-Dec-10 17:00S 64°42' W 064°18'0 0.0 180 / 4999.8 -0.2 -1.1
2019-Dec-10 16:00S 64°42' W 064°18'0 0.0 190 / 3999.8 -0.3 -1.2
2019-Dec-10 15:00S 64°42' W 064°18'0 0.0 160 / 1999.6 0.1 -0.9
2019-Dec-10 14:00S 64°42' W 064°18'0 0.0 160 / 1999.5 -0.0 -1.0
2019-Dec-10 13:00S 64°42' W 064°18'0 0.0 160 / 3999.5 -1.1 -0.9
2019-Dec-10 12:00S 64°42' W 064°18'0 0.0 180 / 4999.4 -1.2 -1.2
2019-Dec-10 11:00S 64°42' W 064°18'0 0.0 170 / 3999.2 -0.6 -1.2
2019-Dec-10 10:00S 64°42' W 064°18'0 0.0 160 / 3999.2 -0.8 -1.1
2019-Dec-10 09:00S 64°42' W 064°18'3 2.6 140 / 3999.1 -1.1 -1.3
2019-Dec-10 08:00S 64°42' W 064°12'3 2.6 150 / 4999.2 -1.3 -1.5
2019-Dec-10 07:00S 64°42' W 064°06'6 6.0 190 / 4999.2 -0.0 -1.5
2019-Dec-10 06:00S 64°48' W 064°06'0 0.0 230 / 4999.2 -1.0 -1.7
2019-Dec-10 05:00S 64°48' W 064°06'0 0.0 280 / 6999.2 -1.2 -1.7
2019-Dec-10 04:00S 64°48' W 064°06'0 0.0 290 / 6999.1 -1.1 -1.7
2019-Dec-10 03:00S 64°48' W 064°06'3 2.6 310 / 6999.0 -1.0 -1.5
2019-Dec-10 02:00S 64°48' W 064°00'6 6.0 300 / 7998.7 -0.8 -0.7
2019-Dec-10 01:00S 64°54' W 064°00'0 0.0 260 / 2998.4 0.1 -0.3
2019-Dec-10 00:00S 64°54' W 064°00'7 6.5 270 / 4998.2 0.2 -0.4
2019-Dec-09 23:00S 64°48' W 063°54'10 9.7 260 / 6998.0 -0.0 -0.3
2019-Dec-09 22:00S 64°54' W 063°36'8 7.6 270 / 5997.9 1.1 0.5
2019-Dec-09 21:00S 64°54' W 063°18'10 9.7 030 / 7997.8 1.9 0.7
2019-Dec-09 20:00S 64°48' W 063°00'3 2.6 030 / 7997.9 1.8 1.4
2019-Dec-09 19:00S 64°48' W 062°54'5 5.1 060 / 4997.8 3.6 1.4
2019-Dec-09 18:00S 64°48' W 063°06'8 7.9 020 / 9997.8 2.3 1.1
2019-Dec-09 17:00S 64°54' W 063°18'8 7.6 010 / 11997.8 2.4 0.7
2019-Dec-09 16:00S 64°54' W 063°36'10 9.7 050 / 13997.5 2.4 0.1
2019-Dec-09 15:00S 64°48' W 063°54'10 9.7 070 / 11997.2 1.7 -1.0
2019-Dec-09 14:00S 64°42' W 064°12'3 2.6 110 / 4997.1 0.4 -1.6
2019-Dec-09 13:00S 64°42' W 064°18'0 0.0 110 / 5997.2 -1.1 -0.8
2019-Dec-09 12:00S 64°42' W 064°18'0 0.0 110 / 7997.3 -1.2 -1.0
2019-Dec-09 11:00S 64°42' W 064°18'0 0.0 110 / 7997.6 -1.6 -0.7
2019-Dec-09 10:00S 64°42' W 064°18'3 2.6 110 / 7998.0 -1.5 -0.5
2019-Dec-09 09:00S 64°42' W 064°24'3 2.6 110 / 6998.2 -0.8 -0.2
2019-Dec-09 08:00S 64°42' W 064°30'0 0.0 100 / 4998.4 -0.2 0.6
2019-Dec-09 07:00S 64°42' W 064°30'3 2.6 060 / 5998.5 -0.5 0.5
2019-Dec-09 06:00S 64°42' W 064°36'0 0.0 030 / 6998.7 -0.3 0.3
2019-Dec-09 05:00S 64°42' W 064°36'7 6.5 040 / 6998.9 -0.2 0.4
2019-Dec-09 04:00S 64°48' W 064°42'3 2.6 020 / 5999.0 -0.1 0.7
2019-Dec-09 03:00S 64°48' W 064°36'7 6.5 030 / 4999.1 -0.0 0.5
2019-Dec-09 02:00S 64°42' W 064°30'3 2.6 010 / 5999.1 0.1 0.4
2019-Dec-09 01:00S 64°42' W 064°24'3 2.6 060 / 2999.2 0.2 0.4
2019-Dec-09 00:00S 64°42' W 064°18'0 0.0 090 / 4999.4 -0.2 -0.2
2019-Dec-08 23:00S 64°42' W 064°18'0 0.0 040 / 3999.5 0.1 -0.3
2019-Dec-08 22:00S 64°42' W 064°18'0 0.0 350 / 4999.7 0.4 -0.5
2019-Dec-08 21:00S 64°42' W 064°18'0 0.0 330 / 6999.6 0.5 -0.5
2019-Dec-08 20:00S 64°42' W 064°18'5 5.1 350 / 6999.6 1.0 -0.2
2019-Dec-08 19:00S 64°42' W 064°30'7 6.5 350 / 8999.5 0.8 0.4
2019-Dec-08 18:00S 64°48' W 064°24'5 5.1 320 / 4999.5 1.5 -1.5
2019-Dec-08 17:00S 64°48' W 064°12'6 6.0 320 / 4999.5 1.5 -1.7
2019-Dec-08 16:00S 64°54' W 064°12'0 0.0 250 / 3999.4 2.2 -1.7
2019-Dec-08 15:00S 64°54' W 064°12'0 0.0 080 / 6999.2 3.1 -1.7
2019-Dec-08 14:00S 64°54' W 064°12'0 0.0 090 / 8999.2 2.2 -1.7
2019-Dec-08 13:00S 64°54' W 064°12'0 0.0 060 / 11999.2 1.6 -1.7
2019-Dec-08 12:00S 64°54' W 064°12'3 2.5 050 / 8999.2 1.1 -1.7
2019-Dec-08 11:00S 64°54' W 064°18'0 0.0 070 / 6999.2 1.0 -1.7
2019-Dec-08 10:00S 64°54' W 064°18'0 0.0 080 / 17998.8 0.6 -1.7
2019-Dec-08 09:00S 64°54' W 064°18'0 0.0 070 / 15998.5 0.2 -1.7
2019-Dec-08 08:00S 64°54' W 064°18'3 2.5 090 / 13998.4 -0.0 -1.7
2019-Dec-08 07:00S 64°54' W 064°24'3 2.5 080 / 13998.2 -0.0 -1.7
2019-Dec-08 06:00S 64°54' W 064°18'0 0.0 110 / 5998.0 -0.8 -1.7
2019-Dec-08 05:00S 64°54' W 064°18'3 2.5 100 / 7997.7 -0.4 -1.6
2019-Dec-08 04:00S 64°54' W 064°24'8 7.6 070 / 9997.5 0.2 -1.6
2019-Dec-08 03:00S 64°54' W 064°42'8 7.6 150 / 7997.4 1.6 0.7
2019-Dec-08 02:00S 64°54' W 065°00'1010.2 130 / 7997.3 2.2 0.3
2019-Dec-08 01:00S 64°54' W 065°24'10 9.7 060 / 7997.0 1.6 -0.0
2019-Dec-08 00:00S 65°00' W 065°42'10 9.7 110 / 10996.5 1.6 0.6
2019-Dec-07 23:00S 65°06' W 066°00'1211.7 140 / 5996.6 1.4 1.1
2019-Dec-07 22:00S 65°12' W 066°24'10 9.6 170 / 6996.5 1.1 0.7
2019-Dec-07 21:00S 65°18' W 066°42'10 9.6 200 / 4996.3 1.5 0.8
2019-Dec-07 20:00S 65°24' W 067°00'10 9.6 190 / 3996.0 1.2 0.4
2019-Dec-07 19:00S 65°30' W 067°18'1313.0 160 / 3995.7 0.7 0.1
2019-Dec-07 18:00S 65°42' W 067°30'8 7.8 150 / 5995.6 0.2 -0.1
2019-Dec-07 17:00S 65°48' W 067°42'0 0.0 150 / 9995.5 0.8 -1.3
2019-Dec-07 16:00S 65°48' W 067°42'0 0.0 160 / 10995.4 0.9 -1.4
2019-Dec-07 15:00S 65°48' W 067°42'0 0.0 160 / 10995.2 0.3 -1.4
2019-Dec-07 14:00S 65°48' W 067°42'0 0.0 160 / 9995.3 0.3 -1.5
2019-Dec-07 13:00S 65°48' W 067°42'0 0.0 150 / 6995.5 -0.5 -1.4
2019-Dec-07 12:00S 65°48' W 067°42'0 0.0 140 / 11995.7 -0.7 -1.5
2019-Dec-07 11:00S 65°48' W 067°42'0 0.0 150 / 9995.7 -1.2 -1.5
2019-Dec-07 10:00S 65°48' W 067°42'0 0.0 160 / 5995.8 -1.2 -1.5
2019-Dec-07 09:00S 65°48' W 067°42'0 0.0 140 / 8996.0 -1.7 -1.6
2019-Dec-07 08:00S 65°48' W 067°42'0 0.0 140 / 6996.3 -2.0 -1.5
2019-Dec-07 07:00S 65°48' W 067°42'0 0.0 120 / 11996.3 -2.0 -1.5
2019-Dec-07 06:00S 65°48' W 067°42'2 2.5 140 / 11996.1 -2.3 -1.5
2019-Dec-07 05:00S 65°48' W 067°48'2 2.5 130 / 12996.1 -1.7 -1.4
2019-Dec-07 04:00S 65°48' W 067°54'0 0.0 140 / 12996.2 -1.4 -0.9
2019-Dec-07 03:00S 65°48' W 067°54'2 2.5 130 / 15996.3 -0.5 -0.7
2019-Dec-07 02:00S 65°48' W 068°00'2 2.5 130 / 15996.3 -0.3 -0.6
2019-Dec-07 01:00S 65°48' W 068°06'6 6.5 130 / 15996.4 -0.0 -0.6
2019-Dec-07 00:00S 65°42' W 068°12'0 0.0 130 / 12996.5 0.1 -0.6
2019-Dec-06 23:00S 65°42' W 068°12'2 2.5 130 / 11996.7 0.4 -0.5
2019-Dec-06 22:00S 65°42' W 068°18'2 2.5 110 / 9997.1 0.6 -0.5
2019-Dec-06 21:00S 65°42' W 068°24'2 2.5 080 / 10997.3 0.6 -0.6
2019-Dec-06 20:00S 65°42' W 068°18'2 2.5 100 / 9997.7 -0.5 -0.7
2019-Dec-06 19:00S 65°42' W 068°12'6 6.5 100 / 9998.1 -0.6 -0.6
2019-Dec-06 18:00S 65°48' W 068°06'2 2.5 100 / 10998.2 -0.3 -0.8
2019-Dec-06 17:00S 65°48' W 068°12'2 2.5 100 / 11998.5 -0.4 -0.6
2019-Dec-06 16:00S 65°48' W 068°18'6 6.0 110 / 12998.7 -0.5 -0.6
2019-Dec-06 15:00S 65°54' W 068°18'2 2.4 120 / 11999.1 -0.4 -0.6
2019-Dec-06 14:00S 65°54' W 068°12'2 2.4 130 / 11999.6 -0.9 -0.8
2019-Dec-06 13:00S 65°54' W 068°18'6 6.0 150 / 91000.1 -1.0 -0.7
2019-Dec-06 12:00S 66°00' W 068°18'0 0.0 160 / 91000.6 1.2 -0.8
2019-Dec-06 11:00S 66°00' W 068°18'0 0.0 140 / 91001.1 -1.0 -1.0
2019-Dec-06 10:00S 66°00' W 068°18'0 0.0 130 / 91001.5 -1.4 -0.8
2019-Dec-06 09:00S 66°00' W 068°18'6 6.5 140 / 91001.7 0.1 -1.2
2019-Dec-06 08:00S 66°06' W 068°24'0 0.0 150 / 81001.8 -1.7 -1.2
2019-Dec-06 07:00S 66°06' W 068°24'2 2.4 160 / 71001.9 -2.0 -1.4
2019-Dec-06 06:00S 66°06' W 068°30'6 6.0 170 / 71001.7 -1.7 -1.6
2019-Dec-06 05:00S 66°12' W 068°30'2 2.4 190 / 51001.6 -2.2 -1.6
2019-Dec-06 04:00S 66°12' W 068°24'6 6.5 190 / 61001.6 -2.2 -1.7
2019-Dec-06 03:00S 66°18' W 068°18'8 7.7 220 / 81001.4 -2.5 -1.7
2019-Dec-06 02:00S 66°24' W 068°06'5 4.8 210 / 101001.3 -2.4 -1.8
2019-Dec-06 01:00S 66°24' W 067°54'5 4.8 210 / 111001.1 -2.0 -1.8
2019-Dec-06 00:00S 66°24' W 067°42'8 7.7 220 / 101000.9 -0.5 -1.7
2019-Dec-05 23:00S 66°30' W 067°30'0 0.0 210 / 91000.8 0.2 -1.6
2019-Dec-05 22:00S 66°30' W 067°30'0 0.0 220 / 91000.6 0.4 -1.6
2019-Dec-05 21:00S 66°30' W 067°30'0 0.0 220 / 71000.4 0.4 -1.5
2019-Dec-05 20:00S 66°30' W 067°30'0 0.0 210 / 81000.0 0.6 -1.5
2019-Dec-05 19:00S 66°30' W 067°30'0 0.0 210 / 6999.7 0.5 -1.6
2019-Dec-05 18:00S 66°30' W 067°30'0 0.0 220 / 4999.1 0.4 -1.6
2019-Dec-05 17:00S 66°30' W 067°30'0 0.0 240 / 5998.7 -0.1 -1.6
2019-Dec-05 16:00S 66°30' W 067°30'0 0.0 240 / 8998.1 -0.3 -1.6
2019-Dec-05 15:00S 66°30' W 067°30'0 0.0 240 / 10997.6 -0.4 -1.5
2019-Dec-05 14:00S 66°30' W 067°30'5 4.8 210 / 8997.3 0.2 -1.7
2019-Dec-05 13:00S 66°30' W 067°42'7 7.2 190 / 9996.7 -0.8 -1.7
2019-Dec-05 12:00S 66°30' W 068°00'8 7.7 170 / 7996.3 -1.2 -1.7
2019-Dec-05 11:00S 66°36' W 068°12'5 4.8 190 / 7995.7 -1.4 -1.7
2019-Dec-05 10:00S 66°36' W 068°24'   240 / 3995.2 -1.5 -1.7

Dump ship's entire track history